createdAt,value
2019-04-09T00:00:03.980Z,1
2019-04-09T00:05:03.284Z,1
2019-04-09T00:10:02.805Z,1
2019-04-09T00:15:03.253Z,1
2019-04-09T00:20:02.650Z,1
2019-04-09T00:25:03.910Z,1
2019-04-09T00:30:02.503Z,1
2019-04-09T00:35:02.978Z,1
2019-04-09T00:40:02.394Z,1
2019-04-09T00:45:03.842Z,1
2019-04-09T00:50:03.300Z,1
2019-04-09T00:55:02.704Z,1
2019-04-09T01:00:03.692Z,1
2019-04-09T01:05:03.175Z,1
2019-04-09T01:10:02.769Z,1
2019-04-09T01:15:03.165Z,1
2019-04-09T01:20:02.565Z,1
2019-04-09T01:25:02.143Z,1
2019-04-09T01:30:01.693Z,1
2019-04-09T01:35:03.470Z,1
2019-04-09T01:40:03.200Z,1
2019-04-09T01:45:02.977Z,1
2019-04-09T01:50:02.489Z,1
2019-04-09T01:55:02.920Z,1
2019-04-09T02:00:03.362Z,1
2019-04-09T02:05:02.876Z,1
2019-04-09T02:10:03.449Z,1
2019-04-09T02:15:02.993Z,1
2019-04-09T02:20:02.985Z,1
2019-04-09T02:25:01.680Z,1
2019-04-09T02:30:04.242Z,1
2019-04-09T02:35:02.734Z,1
2019-04-09T02:40:03.177Z,1
2019-04-09T02:45:02.654Z,1
2019-04-09T02:50:04.054Z,1
2019-04-09T02:55:02.682Z,1
2019-04-09T03:00:03.357Z,1
2019-04-09T03:05:02.780Z,1
2019-04-09T03:10:03.203Z,1
2019-04-09T03:15:03.210Z,1
2019-04-09T03:20:03.602Z,1
2019-04-09T03:25:03.638Z,1
2019-04-09T03:30:03.640Z,1
2019-04-09T03:35:03.164Z,1
2019-04-09T03:40:02.950Z,1
2019-04-09T03:45:02.580Z,1
2019-04-09T03:50:03.271Z,1
2019-04-09T03:55:02.695Z,1
2019-04-09T04:00:03.248Z,1
2019-04-09T04:05:03.312Z,1
2019-04-09T04:10:03.839Z,2
2019-04-09T04:15:02.616Z,2
2019-04-09T04:20:02.984Z,3
2019-04-09T04:25:02.316Z,6
2019-04-09T04:30:03.050Z,12
2019-04-09T04:35:02.438Z,28
2019-04-09T04:40:02.066Z,40
2019-04-09T04:45:01.923Z,58
2019-04-09T04:50:03.387Z,88
2019-04-09T04:55:02.801Z,132
2019-04-09T05:00:03.263Z,263
2019-04-09T05:05:02.685Z,348
2019-04-09T05:10:03.522Z,456
2019-04-09T05:15:03.528Z,552
2019-04-09T05:20:02.919Z,674
2019-04-09T05:25:03.288Z,762
2019-04-09T05:30:02.724Z,867
2019-04-09T05:35:04.017Z,997
2019-04-09T05:40:02.560Z,1000
2019-04-09T05:45:02.933Z,1000
2019-04-09T05:50:03.354Z,1000
2019-04-09T05:55:02.766Z,1000
2019-04-09T06:00:03.983Z,1000
2019-04-09T06:05:02.749Z,1000
2019-04-09T06:10:03.823Z,2000
2019-04-09T06:15:04.330Z,2000
2019-04-09T06:20:02.837Z,2000
2019-04-09T06:25:04.399Z,2000
2019-04-09T06:30:03.003Z,2000
2019-04-09T06:35:03.394Z,2000
2019-04-09T06:40:03.441Z,2000
2019-04-09T06:45:03.704Z,3000
2019-04-09T06:50:03.333Z,3000
2019-04-09T06:55:08.047Z,3000
2019-04-09T07:00:03.238Z,3000
2019-04-09T07:05:02.725Z,3000
2019-04-09T07:10:03.524Z,3000
2019-04-09T07:15:03.159Z,3000
2019-04-09T07:20:02.526Z,4000
2019-04-09T07:25:02.165Z,4000
2019-04-09T07:30:08.498Z,4000
2019-04-09T07:35:04.307Z,4000
2019-04-09T07:40:03.989Z,4000
2019-04-09T07:45:03.840Z,4000
2019-04-09T07:50:07.150Z,5000
2019-04-09T07:55:02.765Z,5000
2019-04-09T08:00:11.465Z,11000
2019-04-09T08:05:03.062Z,25000
2019-04-09T08:10:02.068Z,27000
2019-04-09T08:15:02.995Z,27000
2019-04-09T08:20:03.319Z,29000
2019-04-09T08:25:02.764Z,29000
2019-04-09T08:30:16.936Z,30000
2019-04-09T08:35:04.975Z,31000
2019-04-09T08:40:03.716Z,32000
2019-04-09T08:45:03.194Z,32000
2019-04-09T08:50:03.417Z,32000
2019-04-09T08:55:02.885Z,33000
2019-04-09T09:00:03.716Z,34000
2019-04-09T09:05:12.555Z,35000
2019-04-09T09:10:01.979Z,34000
2019-04-09T09:15:02.666Z,36000
2019-04-09T09:20:04.231Z,36000
2019-04-09T09:25:02.689Z,36000
2019-04-09T09:30:04.011Z,36000
2019-04-09T09:35:03.633Z,36000
2019-04-09T09:40:02.978Z,37000
2019-04-09T09:45:04.156Z,37000
2019-04-09T09:50:05.460Z,37000
2019-04-09T09:55:04.273Z,36000
2019-04-09T10:00:04.848Z,36000
2019-04-09T10:05:03.271Z,36000
2019-04-09T10:10:04.600Z,28000
2019-04-09T10:15:06.311Z,26000
2019-04-09T10:20:03.473Z,28000
2019-04-09T10:25:03.597Z,22000
2019-04-09T10:30:07.559Z,33000
2019-04-09T10:35:06.189Z,37000
2019-04-09T10:40:06.710Z,36000
2019-04-09T10:45:03.392Z,37000
2019-04-09T10:50:03.937Z,34000
2019-04-09T10:55:01.738Z,37000
2019-04-09T11:00:06.218Z,35000
2019-04-09T11:05:02.807Z,36000
2019-04-09T11:10:03.817Z,35000
2019-04-09T11:15:03.759Z,35000
2019-04-09T11:20:03.221Z,36000
2019-04-09T11:25:03.919Z,36000
2019-04-09T11:30:02.664Z,37000
2019-04-09T11:35:03.993Z,36000
2019-04-09T11:40:03.012Z,36000
2019-04-09T11:45:02.457Z,36000
2019-04-09T11:50:03.656Z,36000
2019-04-09T11:55:03.210Z,36000
2019-04-09T12:00:03.732Z,37000
2019-04-09T12:05:02.704Z,36000
2019-04-09T12:10:03.789Z,36000
2019-04-09T12:15:04.478Z,35000
2019-04-09T12:20:08.133Z,35000
2019-04-09T12:25:02.637Z,36000
2019-04-09T12:30:03.706Z,35000
2019-04-09T12:35:05.008Z,35000
2019-04-09T12:40:02.651Z,35000
2019-04-09T12:45:03.065Z,34000
2019-04-09T12:50:02.487Z,33000
2019-04-09T12:55:03.483Z,27000
2019-04-09T13:00:03.672Z,27000
2019-04-09T13:05:03.227Z,27000
2019-04-09T13:10:02.917Z,27000
2019-04-09T13:15:03.935Z,25000
2019-04-09T13:20:02.381Z,28000
2019-04-09T13:25:03.176Z,24000
2019-04-09T13:30:03.209Z,21000
2019-04-09T13:35:02.679Z,14000
2019-04-09T13:40:03.134Z,12000
2019-04-09T13:45:02.569Z,12000
2019-04-09T13:50:02.993Z,14000
2019-04-09T13:55:02.407Z,15000
2019-04-09T14:00:03.009Z,14000
2019-04-09T14:05:02.461Z,15000
2019-04-09T14:10:03.013Z,16000
2019-04-09T14:15:02.971Z,15000
2019-04-09T14:20:04.160Z,15000
2019-04-09T14:25:03.276Z,15000
2019-04-09T14:30:02.742Z,15000
2019-04-09T14:35:03.580Z,14000
2019-04-09T14:40:03.648Z,14000
2019-04-09T14:45:03.717Z,14000
2019-04-09T14:50:03.086Z,14000
2019-04-09T14:55:02.497Z,14000
2019-04-09T15:00:05.137Z,13000
2019-04-09T15:05:04.258Z,12000
2019-04-09T15:10:02.810Z,11000
2019-04-09T15:15:03.389Z,11000
2019-04-09T15:20:02.887Z,11000
2019-04-09T15:25:03.319Z,11000
2019-04-09T15:30:02.663Z,10000
2019-04-09T15:35:03.456Z,9000
2019-04-09T15:40:03.314Z,9000
2019-04-09T15:45:02.740Z,8000
2019-04-09T15:50:05.046Z,8000
2019-04-09T15:55:03.319Z,7000
2019-04-09T16:00:03.197Z,8000
2019-04-09T16:05:02.655Z,8000
2019-04-09T16:10:03.794Z,8000
2019-04-09T16:15:04.191Z,8000
2019-04-09T16:20:02.752Z,8000
2019-04-09T16:25:03.211Z,10000
2019-04-09T16:30:02.612Z,10000
2019-04-09T16:35:02.971Z,9000
2019-04-09T16:40:02.638Z,8000
2019-04-09T16:45:07.366Z,8000
2019-04-09T16:50:03.979Z,7000
2019-04-09T16:55:03.123Z,4000
2019-04-09T17:00:03.358Z,3000
2019-04-09T17:05:02.859Z,2000
2019-04-09T17:10:03.673Z,2000
2019-04-09T17:15:03.124Z,1000
2019-04-09T17:20:02.556Z,1000
2019-04-09T17:25:03.512Z,1000
2019-04-09T17:30:03.861Z,1000
2019-04-09T17:35:03.263Z,1000
2019-04-09T17:40:07.200Z,1000
2019-04-09T17:45:02.715Z,987
2019-04-09T17:50:03.963Z,859
2019-04-09T17:55:03.171Z,733
2019-04-09T18:00:02.612Z,644
2019-04-09T18:05:04.165Z,521
2019-04-09T18:10:01.848Z,389
2019-04-09T18:15:03.218Z,157
2019-04-09T18:20:03.592Z,87
2019-04-09T18:25:03.847Z,63
2019-04-09T18:30:04.228Z,48
2019-04-09T18:35:04.967Z,42
2019-04-09T18:40:03.663Z,29
2019-04-09T18:45:03.763Z,14
2019-04-09T18:50:03.304Z,7
2019-04-09T18:55:02.712Z,2
2019-04-09T19:00:03.971Z,2
2019-04-09T19:05:10.271Z,2
2019-04-09T19:10:03.199Z,1
2019-04-09T19:15:02.701Z,1
2019-04-09T19:20:03.511Z,1
2019-04-09T19:25:03.943Z,1
2019-04-09T19:30:02.311Z,1
2019-04-09T19:35:14.523Z,1
2019-04-09T19:40:03.619Z,1
2019-04-09T19:45:03.108Z,1
2019-04-09T19:50:03.570Z,1
2019-04-09T19:55:04.058Z,1
2019-04-09T20:00:02.611Z,1
2019-04-09T20:05:03.042Z,1
2019-04-09T20:10:02.467Z,1
2019-04-09T20:15:03.922Z,1
2019-04-09T20:20:02.425Z,1
2019-04-09T20:25:03.049Z,1
2019-04-09T20:30:03.644Z,1
2019-04-09T20:35:06.083Z,1
2019-04-09T20:40:03.548Z,1
2019-04-09T20:45:03.074Z,1
2019-04-09T20:50:01.627Z,1
2019-04-09T20:55:03.171Z,1
2019-04-09T21:00:11.909Z,1
2019-04-09T21:05:03.455Z,1
2019-04-09T21:10:02.453Z,1
2019-04-09T21:15:03.014Z,1
2019-04-09T21:20:03.334Z,1
2019-04-09T21:25:02.757Z,1
2019-04-09T21:30:03.746Z,1
2019-04-09T21:35:03.385Z,1
2019-04-09T21:40:03.628Z,1
2019-04-09T21:45:03.120Z,1
2019-04-09T21:50:02.718Z,1
2019-04-09T21:55:05.053Z,1
2019-04-09T22:00:02.617Z,1
2019-04-09T22:05:03.683Z,1
2019-04-09T22:10:03.174Z,1
2019-04-09T22:15:02.834Z,1
2019-04-09T22:20:04.584Z,1
2019-04-09T22:25:02.772Z,1
2019-04-09T22:30:03.648Z,1
2019-04-09T22:35:03.118Z,1
2019-04-09T22:40:02.632Z,1
2019-04-09T22:45:03.065Z,1
2019-04-09T22:50:02.418Z,1
2019-04-09T22:55:02.756Z,1
2019-04-09T23:00:03.083Z,1
2019-04-09T23:05:02.732Z,1
2019-04-09T23:10:06.214Z,1
2019-04-09T23:15:03.814Z,1
2019-04-09T23:20:04.033Z,1
2019-04-09T23:25:02.437Z,1
2019-04-09T23:30:03.727Z,1
2019-04-09T23:35:03.223Z,1
2019-04-09T23:40:02.811Z,1
2019-04-09T23:45:03.289Z,1
2019-04-09T23:50:02.794Z,1
2019-04-09T23:55:03.258Z,1
